Preview of NWS' New Version of Forecast
This preview is not operational and should not be used for support decisions.

Terminal Aerodrome Forecast (TAF)

Issued by National Weather Service (NWS)

                            
000
FTUS42 KKEY 231432 AAA
TAFEYW
TAF AMD
KEYW 231432Z 2315/2412 11017G23KT P6SM VCSH SCT030 SCT200
     FM231700 13016G26KT P6SM SCT025 SCT200
     FM240600 17014KT P6SM SCT020=